Terminal Aerodrome Forecast
Issued by NWS

Home | Current Version | Previous Version | Text Only | Print | Product List | Glossary On
Versions: 1 2 3 4 5 6 7 8 9 10 11 12 13 14 15
000
FTUS46 KSGX 161727
TAFONT
TAF
KONT 161727Z 1618/1724 VRB04KT P6SM SCT030
     FM162100 26011G18KT P6SM SKC
     FM170400 25009KT P6SM SKC
     FM170600 VRB05KT P6SM SCT012
     FM171100 VRB05KT 6SM BR BKN010
     FM171530 VRB05KT P6SM SCT015
     FM172100 26011G18KT P6SM SKC=

USA.gov is the U.S. government's official web portal to all federal, state and local government web resources and services.